sensor_id;sensor_type;location;lat;lon;timestamp;P1;durP1;ratioP1;P2;durP2;ratioP2
9330;SDS011;4704;50.470;12.072;2022-11-15T00:00:12;5.00;;;4.60;;
9330;SDS011;4704;50.470;12.072;2022-11-15T00:02:41;4.55;;;4.18;;
9330;SDS011;4704;50.470;12.072;2022-11-15T00:05:09;4.40;;;4.10;;
9330;SDS011;4704;50.470;12.072;2022-11-15T00:07:37;4.28;;;3.97;;
9330;SDS011;4704;50.470;12.072;2022-11-15T00:10:05;4.53;;;4.18;;
9330;SDS011;4704;50.470;12.072;2022-11-15T00:12:32;4.78;;;4.38;;
9330;SDS011;4704;50.470;12.072;2022-11-15T00:15:00;4.05;;;3.75;;
9330;SDS011;4704;50.470;12.072;2022-11-15T00:17:28;5.05;;;4.60;;
9330;SDS011;4704;50.470;12.072;2022-11-15T00:19:57;4.60;;;4.20;;
9330;SDS011;4704;50.470;12.072;2022-11-15T00:22:25;4.63;;;4.32;;
9330;SDS011;4704;50.470;12.072;2022-11-15T00:24:58;4.63;;;4.22;;
9330;SDS011;4704;50.470;12.072;2022-11-15T00:27:26;5.00;;;4.47;;
9330;SDS011;4704;50.470;12.072;2022-11-15T00:29:54;4.60;;;4.20;;
9330;SDS011;4704;50.470;12.072;2022-11-15T00:32:21;4.43;;;4.10;;
9330;SDS011;4704;50.470;12.072;2022-11-15T00:34:49;5.03;;;4.63;;
9330;SDS011;4704;50.470;12.072;2022-11-15T00:37:18;4.72;;;4.32;;
9330;SDS011;4704;50.470;12.072;2022-11-15T00:39:46;4.50;;;4.10;;
9330;SDS011;4704;50.470;12.072;2022-11-15T00:42:13;4.35;;;3.95;;
9330;SDS011;4704;50.470;12.072;2022-11-15T00:44:41;4.40;;;4.00;;
9330;SDS011;4704;50.470;12.072;2022-11-15T00:47:09;4.57;;;4.18;;
9330;SDS011;4704;50.470;12.072;2022-11-15T00:49:36;4.30;;;3.90;;
9330;SDS011;4704;50.470;12.072;2022-11-15T00:52:04;4.57;;;4.18;;
9330;SDS011;4704;50.470;12.072;2022-11-15T00:54:33;4.80;;;4.40;;
9330;SDS011;4704;50.470;12.072;2022-11-15T00:57:02;4.32;;;4.00;;
9330;SDS011;4704;50.470;12.072;2022-11-15T00:59:30;4.18;;;3.88;;
9330;SDS011;4704;50.470;12.072;2022-11-15T01:01:57;4.05;;;3.75;;
9330;SDS011;4704;50.470;12.072;2022-11-15T01:04:25;4.13;;;3.83;;
9330;SDS011;4704;50.470;12.072;2022-11-15T01:06:53;3.85;;;3.55;;
9330;SDS011;4704;50.470;12.072;2022-11-15T01:09:21;4.20;;;3.90;;
9330;SDS011;4704;50.470;12.072;2022-11-15T01:11:50;4.07;;;3.78;;
9330;SDS011;4704;50.470;12.072;2022-11-15T01:14:17;4.72;;;4.20;;
9330;SDS011;4704;50.470;12.072;2022-11-15T01:16:45;3.97;;;3.67;;
9330;SDS011;4704;50.470;12.072;2022-11-15T01:19:13;4.30;;;4.00;;
9330;SDS011;4704;50.470;12.072;2022-11-15T01:21:40;4.60;;;4.20;;
9330;SDS011;4704;50.470;12.072;2022-11-15T01:24:09;4.20;;;3.90;;
9330;SDS011;4704;50.470;12.072;2022-11-15T01:26:39;4.25;;;3.90;;
9330;SDS011;4704;50.470;12.072;2022-11-15T01:29:08;4.38;;;3.70;;
9330;SDS011;4704;50.470;12.072;2022-11-15T01:31:36;4.55;;;4.15;;
9330;SDS011;4704;50.470;12.072;2022-11-15T01:34:03;4.45;;;4.00;;
9330;SDS011;4704;50.470;12.072;2022-11-15T01:36:31;4.55;;;4.15;;
9330;SDS011;4704;50.470;12.072;2022-11-15T01:38:59;4.18;;;3.88;;
9330;SDS011;4704;50.470;12.072;2022-11-15T01:41:27;4.18;;;3.83;;
9330;SDS011;4704;50.470;12.072;2022-11-15T01:43:56;4.07;;;3.78;;
9330;SDS011;4704;50.470;12.072;2022-11-15T01:46:30;4.22;;;3.92;;
9330;SDS011;4704;50.470;12.072;2022-11-15T01:49:00;4.10;;;3.80;;
9330;SDS011;4704;50.470;12.072;2022-11-15T01:51:31;3.80;;;3.50;;
9330;SDS011;4704;50.470;12.072;2022-11-15T01:54:02;4.15;;;3.78;;
9330;SDS011;4704;50.470;12.072;2022-11-15T01:56:31;4.00;;;3.70;;
9330;SDS011;4704;50.470;12.072;2022-11-15T01:59:00;4.22;;;3.83;;
9330;SDS011;4704;50.470;12.072;2022-11-15T02:01:32;4.13;;;3.83;;
9330;SDS011;4704;50.470;12.072;2022-11-15T02:04:04;4.15;;;3.85;;
9330;SDS011;4704;50.470;12.072;2022-11-15T02:06:34;3.80;;;3.50;;
9330;SDS011;4704;50.470;12.072;2022-11-15T02:09:02;4.28;;;3.97;;
9330;SDS011;4704;50.470;12.072;2022-11-15T02:11:30;4.28;;;3.80;;
9330;SDS011;4704;50.470;12.072;2022-11-15T02:13:58;3.95;;;3.65;;
9330;SDS011;4704;50.470;12.072;2022-11-15T02:16:27;4.03;;;3.72;;
9330;SDS011;4704;50.470;12.072;2022-11-15T02:19:02;3.85;;;3.55;;
9330;SDS011;4704;50.470;12.072;2022-11-15T02:21:33;4.40;;;4.00;;
9330;SDS011;4704;50.470;12.072;2022-11-15T02:29:57;3.92;;;3.63;;
9330;SDS011;4704;50.470;12.072;2022-11-15T02:32:30;3.88;;;3.58;;
9330;SDS011;4704;50.470;12.072;2022-11-15T02:35:01;4.07;;;3.78;;
9330;SDS011;4704;50.470;12.072;2022-11-15T02:37:32;3.70;;;3.40;;
9330;SDS011;4704;50.470;12.072;2022-11-15T02:40:04;4.18;;;3.78;;
9330;SDS011;4704;50.470;12.072;2022-11-15T02:42:35;4.20;;;3.90;;
9330;SDS011;4704;50.470;12.072;2022-11-15T02:45:23;4.28;;;3.88;;
9330;SDS011;4704;50.470;12.072;2022-11-15T02:47:54;3.92;;;3.63;;
9330;SDS011;4704;50.470;12.072;2022-11-15T02:50:24;3.85;;;3.55;;
9330;SDS011;4704;50.470;12.072;2022-11-15T02:52:52;4.28;;;3.88;;
9330;SDS011;4704;50.470;12.072;2022-11-15T02:55:27;4.00;;;3.60;;
9330;SDS011;4704;50.470;12.072;2022-11-15T02:57:58;4.20;;;3.80;;
9330;SDS011;4704;50.470;12.072;2022-11-15T03:00:34;3.50;;;3.20;;
9330;SDS011;4704;50.470;12.072;2022-11-15T03:03:12;3.75;;;3.45;;
9330;SDS011;4704;50.470;12.072;2022-11-15T03:05:44;3.85;;;3.55;;
9330;SDS011;4704;50.470;12.072;2022-11-15T03:08:15;3.45;;;3.15;;
9330;SDS011;4704;50.470;12.072;2022-11-15T03:10:45;4.07;;;3.78;;
9330;SDS011;4704;50.470;12.072;2022-11-15T03:13:19;4.32;;;3.97;;
9330;SDS011;4704;50.470;12.072;2022-11-15T03:15:49;3.83;;;3.35;;
9330;SDS011;4704;50.470;12.072;2022-11-15T03:18:21;4.15;;;3.85;;
9330;SDS011;4704;50.470;12.072;2022-11-15T03:20:50;3.90;;;3.60;;
9330;SDS011;4704;50.470;12.072;2022-11-15T03:23:19;3.83;;;3.53;;
9330;SDS011;4704;50.470;12.072;2022-11-15T03:25:48;4.00;;;3.70;;
9330;SDS011;4704;50.470;12.072;2022-11-15T03:28:18;4.00;;;3.70;;
9330;SDS011;4704;50.470;12.072;2022-11-15T03:30:47;4.00;;;3.70;;
9330;SDS011;4704;50.470;12.072;2022-11-15T03:33:17;3.78;;;3.47;;
9330;SDS011;4704;50.470;12.072;2022-11-15T03:35:47;3.45;;;3.15;;
9330;SDS011;4704;50.470;12.072;2022-11-15T03:38:15;4.10;;;3.75;;
9330;SDS011;4704;50.470;12.072;2022-11-15T03:40:45;3.80;;;3.50;;
9330;SDS011;4704;50.470;12.072;2022-11-15T03:43:15;4.15;;;3.85;;
9330;SDS011;4704;50.470;12.072;2022-11-15T03:45:48;3.92;;;3.63;;
9330;SDS011;4704;50.470;12.072;2022-11-15T03:48:18;4.18;;;3.85;;
9330;SDS011;4704;50.470;12.072;2022-11-15T03:50:49;3.80;;;3.50;;
9330;SDS011;4704;50.470;12.072;2022-11-15T03:53:16;3.78;;;3.47;;
9330;SDS011;4704;50.470;12.072;2022-11-15T03:55:44;3.53;;;3.22;;
9330;SDS011;4704;50.470;12.072;2022-11-15T03:58:12;3.78;;;3.47;;
9330;SDS011;4704;50.470;12.072;2022-11-15T04:00:39;3.80;;;3.50;;
9330;SDS011;4704;50.470;12.072;2022-11-15T04:03:07;3.70;;;3.40;;
9330;SDS011;4704;50.470;12.072;2022-11-15T04:05:35;3.88;;;3.58;;
9330;SDS011;4704;50.470;12.072;2022-11-15T04:08:05;3.50;;;3.20;;
9330;SDS011;4704;50.470;12.072;2022-11-15T04:10:32;3.65;;;3.35;;
9330;SDS011;4704;50.470;12.072;2022-11-15T04:13:01;3.92;;;3.63;;
9330;SDS011;4704;50.470;12.072;2022-11-15T04:15:29;3.78;;;3.47;;
9330;SDS011;4704;50.470;12.072;2022-11-15T04:17:57;3.60;;;3.30;;
9330;SDS011;4704;50.470;12.072;2022-11-15T04:20:25;3.67;;;3.38;;
9330;SDS011;4704;50.470;12.072;2022-11-15T04:23:12;3.47;;;3.17;;
9330;SDS011;4704;50.470;12.072;2022-11-15T04:25:58;4.00;;;3.67;;
9330;SDS011;4704;50.470;12.072;2022-11-15T04:28:26;3.42;;;3.13;;
9330;SDS011;4704;50.470;12.072;2022-11-15T04:30:53;3.92;;;3.63;;
9330;SDS011;4704;50.470;12.072;2022-11-15T04:33:21;3.70;;;3.40;;
9330;SDS011;4704;50.470;12.072;2022-11-15T04:35:49;3.67;;;3.38;;
9330;SDS011;4704;50.470;12.072;2022-11-15T04:38:32;3.33;;;3.03;;
9330;SDS011;4704;50.470;12.072;2022-11-15T04:40:59;3.38;;;3.10;;
9330;SDS011;4704;50.470;12.072;2022-11-15T04:43:27;3.70;;;3.40;;
9330;SDS011;4704;50.470;12.072;2022-11-15T04:45:56;3.67;;;3.38;;
9330;SDS011;4704;50.470;12.072;2022-11-15T04:48:24;3.20;;;3.00;;
9330;SDS011;4704;50.470;12.072;2022-11-15T04:50:52;3.35;;;3.10;;
9330;SDS011;4704;50.470;12.072;2022-11-15T04:53:20;3.60;;;3.30;;
9330;SDS011;4704;50.470;12.072;2022-11-15T04:55:49;3.80;;;3.50;;
9330;SDS011;4704;50.470;12.072;2022-11-15T04:58:17;3.78;;;3.47;;
9330;SDS011;4704;50.470;12.072;2022-11-15T05:00:44;3.70;;;3.40;;
9330;SDS011;4704;50.470;12.072;2022-11-15T05:03:12;3.55;;;3.25;;
9330;SDS011;4704;50.470;12.072;2022-11-15T05:05:57;3.53;;;3.22;;
9330;SDS011;4704;50.470;12.072;2022-11-15T05:08:25;3.78;;;3.47;;
9330;SDS011;4704;50.470;12.072;2022-11-15T05:10:53;3.58;;;3.28;;
9330;SDS011;4704;50.470;12.072;2022-11-15T05:13:21;3.60;;;3.30;;
9330;SDS011;4704;50.470;12.072;2022-11-15T05:15:48;3.47;;;3.17;;
9330;SDS011;4704;50.470;12.072;2022-11-15T05:18:16;3.42;;;3.13;;
9330;SDS011;4704;50.470;12.072;2022-11-15T05:20:43;3.72;;;3.42;;
9330;SDS011;4704;50.470;12.072;2022-11-15T05:23:11;3.45;;;3.22;;
9330;SDS011;4704;50.470;12.072;2022-11-15T05:25:38;3.47;;;3.17;;
9330;SDS011;4704;50.470;12.072;2022-11-15T05:28:07;3.08;;;2.88;;
9330;SDS011;4704;50.470;12.072;2022-11-15T05:30:34;3.63;;;3.33;;
9330;SDS011;4704;50.470;12.072;2022-11-15T05:33:02;3.65;;;3.35;;
9330;SDS011;4704;50.470;12.072;2022-11-15T05:35:30;3.53;;;3.22;;
9330;SDS011;4704;50.470;12.072;2022-11-15T05:37:57;3.40;;;3.10;;
9330;SDS011;4704;50.470;12.072;2022-11-15T05:40:25;3.53;;;3.17;;
9330;SDS011;4704;50.470;12.072;2022-11-15T05:42:52;3.70;;;3.40;;
9330;SDS011;4704;50.470;12.072;2022-11-15T05:45:22;3.60;;;3.30;;
9330;SDS011;4704;50.470;12.072;2022-11-15T05:47:49;3.65;;;3.25;;
9330;SDS011;4704;50.470;12.072;2022-11-15T05:50:17;3.75;;;3.28;;
9330;SDS011;4704;50.470;12.072;2022-11-15T05:52:45;5.28;;;3.20;;
9330;SDS011;4704;50.470;12.072;2022-11-15T05:55:13;3.28;;;3.05;;
9330;SDS011;4704;50.470;12.072;2022-11-15T05:57:41;3.60;;;3.30;;
9330;SDS011;4704;50.470;12.072;2022-11-15T06:00:08;3.45;;;3.15;;
9330;SDS011;4704;50.470;12.072;2022-11-15T06:02:37;3.38;;;3.08;;
9330;SDS011;4704;50.470;12.072;2022-11-15T06:05:05;3.50;;;3.20;;
9330;SDS011;4704;50.470;12.072;2022-11-15T06:07:32;3.72;;;3.42;;
9330;SDS011;4704;50.470;12.072;2022-11-15T06:10:00;3.88;;;2.97;;
9330;SDS011;4704;50.470;12.072;2022-11-15T06:12:27;3.53;;;3.22;;
9330;SDS011;4704;50.470;12.072;2022-11-15T06:14:55;4.35;;;3.40;;
9330;SDS011;4704;50.470;12.072;2022-11-15T06:17:22;3.47;;;3.17;;
9330;SDS011;4704;50.470;12.072;2022-11-15T06:19:51;3.42;;;3.13;;
9330;SDS011;4704;50.470;12.072;2022-11-15T06:22:18;4.00;;;3.17;;
9330;SDS011;4704;50.470;12.072;2022-11-15T06:24:46;3.40;;;3.10;;
9330;SDS011;4704;50.470;12.072;2022-11-15T06:27:13;3.30;;;3.00;;
9330;SDS011;4704;50.470;12.072;2022-11-15T06:29:41;3.80;;;3.05;;
9330;SDS011;4704;50.470;12.072;2022-11-15T06:32:08;3.97;;;2.80;;
9330;SDS011;4704;50.470;12.072;2022-11-15T06:34:36;3.50;;;3.20;;
9330;SDS011;4704;50.470;12.072;2022-11-15T06:37:05;3.22;;;3.03;;
9330;SDS011;4704;50.470;12.072;2022-11-15T06:39:32;3.58;;;2.95;;
9330;SDS011;4704;50.470;12.072;2022-11-15T06:42:00;3.05;;;2.83;;
9330;SDS011;4704;50.470;12.072;2022-11-15T06:44:27;3.00;;;2.80;;
9330;SDS011;4704;50.470;12.072;2022-11-15T06:46:55;2.97;;;2.78;;
9330;SDS011;4704;50.470;12.072;2022-11-15T06:49:22;3.38;;;3.10;;
9330;SDS011;4704;50.470;12.072;2022-11-15T06:51:49;3.38;;;2.60;;
9330;SDS011;4704;50.470;12.072;2022-11-15T06:54:18;3.10;;;2.90;;
9330;SDS011;4704;50.470;12.072;2022-11-15T06:56:46;3.25;;;2.90;;
9330;SDS011;4704;50.470;12.072;2022-11-15T06:59:13;3.10;;;2.80;;
9330;SDS011;4704;50.470;12.072;2022-11-15T07:01:41;3.67;;;2.90;;
9330;SDS011;4704;50.470;12.072;2022-11-15T07:04:08;3.17;;;2.97;;
9330;SDS011;4704;50.470;12.072;2022-11-15T07:06:36;2.80;;;2.60;;
9330;SDS011;4704;50.470;12.072;2022-11-15T07:09:03;3.20;;;3.00;;
9330;SDS011;4704;50.470;12.072;2022-11-15T07:11:32;3.00;;;2.80;;
9330;SDS011;4704;50.470;12.072;2022-11-15T07:13:59;3.20;;;2.90;;
9330;SDS011;4704;50.470;12.072;2022-11-15T07:16:27;3.13;;;2.63;;
9330;SDS011;4704;50.470;12.072;2022-11-15T07:18:54;3.10;;;2.80;;
9330;SDS011;4704;50.470;12.072;2022-11-15T07:21:22;2.92;;;2.70;;
9330;SDS011;4704;50.470;12.072;2022-11-15T07:23:49;3.03;;;2.83;;
9330;SDS011;4704;50.470;12.072;2022-11-15T07:26:16;3.10;;;2.80;;
9330;SDS011;4704;50.470;12.072;2022-11-15T07:28:45;3.13;;;2.92;;
9330;SDS011;4704;50.470;12.072;2022-11-15T07:31:13;2.72;;;2.53;;
9330;SDS011;4704;50.470;12.072;2022-11-15T07:33:40;2.97;;;2.78;;
9330;SDS011;4704;50.470;12.072;2022-11-15T07:36:08;3.25;;;2.95;;
9330;SDS011;4704;50.470;12.072;2022-11-15T07:38:36;2.90;;;2.70;;
9330;SDS011;4704;50.470;12.072;2022-11-15T07:41:04;3.05;;;2.75;;
9330;SDS011;4704;50.470;12.072;2022-11-15T07:43:32;3.08;;;2.88;;
9330;SDS011;4704;50.470;12.072;2022-11-15T07:46:05;2.92;;;2.70;;
9330;SDS011;4704;50.470;12.072;2022-11-15T07:48:34;3.00;;;2.80;;
9330;SDS011;4704;50.470;12.072;2022-11-15T07:51:01;3.50;;;2.88;;
9330;SDS011;4704;50.470;12.072;2022-11-15T07:53:29;3.25;;;2.88;;
9330;SDS011;4704;50.470;12.072;2022-11-15T07:55:56;2.90;;;2.70;;
9330;SDS011;4704;50.470;12.072;2022-11-15T07:58:24;3.50;;;3.20;;
9330;SDS011;4704;50.470;12.072;2022-11-15T08:00:51;3.20;;;2.88;;
9330;SDS011;4704;50.470;12.072;2022-11-15T08:03:20;3.47;;;2.75;;
9330;SDS011;4704;50.470;12.072;2022-11-15T08:05:50;2.85;;;2.65;;
9330;SDS011;4704;50.470;12.072;2022-11-15T08:08:17;3.40;;;3.10;;
9330;SDS011;4704;50.470;12.072;2022-11-15T08:10:45;2.80;;;2.60;;
9330;SDS011;4704;50.470;12.072;2022-11-15T08:13:12;3.20;;;2.90;;
9330;SDS011;4704;50.470;12.072;2022-11-15T08:15:40;3.28;;;2.85;;
9330;SDS011;4704;50.470;12.072;2022-11-15T08:18:08;3.03;;;2.53;;
9330;SDS011;4704;50.470;12.072;2022-11-15T08:20:38;3.20;;;3.00;;
9330;SDS011;4704;50.470;12.072;2022-11-15T08:23:06;7.95;;;7.25;;
9330;SDS011;4704;50.470;12.072;2022-11-15T08:25:35;24.08;;;21.77;;
9330;SDS011;4704;50.470;12.072;2022-11-15T08:28:03;17.45;;;15.85;;
9330;SDS011;4704;50.470;12.072;2022-11-15T08:30:33;17.90;;;16.30;;
9330;SDS011;4704;50.470;12.072;2022-11-15T08:33:02;17.33;;;15.75;;
9330;SDS011;4704;50.470;12.072;2022-11-15T08:35:29;19.13;;;17.52;;
9330;SDS011;4704;50.470;12.072;2022-11-15T08:37:58;20.38;;;18.55;;
9330;SDS011;4704;50.470;12.072;2022-11-15T08:40:25;17.70;;;16.02;;
9330;SDS011;4704;50.470;12.072;2022-11-15T08:42:53;17.08;;;15.50;;
9330;SDS011;4704;50.470;12.072;2022-11-15T08:45:20;17.60;;;15.15;;
9330;SDS011;4704;50.470;12.072;2022-11-15T08:47:48;15.57;;;13.98;;
9330;SDS011;4704;50.470;12.072;2022-11-15T08:50:15;15.70;;;14.20;;
9330;SDS011;4704;50.470;12.072;2022-11-15T08:52:43;14.65;;;13.25;;
9330;SDS011;4704;50.470;12.072;2022-11-15T08:55:14;14.68;;;13.23;;
9330;SDS011;4704;50.470;12.072;2022-11-15T08:57:41;13.93;;;12.63;;
9330;SDS011;4704;50.470;12.072;2022-11-15T09:00:09;21.27;;;19.38;;
9330;SDS011;4704;50.470;12.072;2022-11-15T09:02:38;20.42;;;18.70;;
9330;SDS011;4704;50.470;12.072;2022-11-15T09:05:06;19.20;;;17.50;;
9330;SDS011;4704;50.470;12.072;2022-11-15T09:07:34;17.67;;;15.88;;
9330;SDS011;4704;50.470;12.072;2022-11-15T09:10:01;16.15;;;14.85;;
9330;SDS011;4704;50.470;12.072;2022-11-15T09:12:30;16.15;;;14.77;;
9330;SDS011;4704;50.470;12.072;2022-11-15T09:14:58;15.73;;;14.43;;
9330;SDS011;4704;50.470;12.072;2022-11-15T09:17:25;15.43;;;13.93;;
9330;SDS011;4704;50.470;12.072;2022-11-15T09:19:52;14.57;;;13.15;;
9330;SDS011;4704;50.470;12.072;2022-11-15T09:22:20;13.85;;;12.65;;
9330;SDS011;4704;50.470;12.072;2022-11-15T09:24:47;13.82;;;12.65;;
9330;SDS011;4704;50.470;12.072;2022-11-15T09:27:14;13.10;;;12.00;;
9330;SDS011;4704;50.470;12.072;2022-11-15T09:29:43;15.90;;;12.27;;
9330;SDS011;4704;50.470;12.072;2022-11-15T09:32:11;11.88;;;10.98;;
9330;SDS011;4704;50.470;12.072;2022-11-15T09:34:38;12.20;;;11.10;;
9330;SDS011;4704;50.470;12.072;2022-11-15T09:37:05;11.57;;;10.57;;
9330;SDS011;4704;50.470;12.072;2022-11-15T09:39:33;11.23;;;10.27;;
9330;SDS011;4704;50.470;12.072;2022-11-15T09:44:55;11.23;;;10.32;;
9330;SDS011;4704;50.470;12.072;2022-11-15T09:50:17;9.95;;;9.15;;
9330;SDS011;4704;50.470;12.072;2022-11-15T09:52:48;9.85;;;9.05;;
9330;SDS011;4704;50.470;12.072;2022-11-15T09:55:15;8.90;;;8.20;;
9330;SDS011;4704;50.470;12.072;2022-11-15T09:57:48;8.93;;;8.25;;
9330;SDS011;4704;50.470;12.072;2022-11-15T10:00:20;8.90;;;8.20;;
9330;SDS011;4704;50.470;12.072;2022-11-15T10:03:02;8.45;;;7.65;;
9330;SDS011;4704;50.470;12.072;2022-11-15T10:06:03;8.88;;;8.05;;
9330;SDS011;4704;50.470;12.072;2022-11-15T10:08:44;8.45;;;7.68;;
9330;SDS011;4704;50.470;12.072;2022-11-15T10:11:15;8.18;;;7.53;;
9330;SDS011;4704;50.470;12.072;2022-11-15T10:13:45;7.82;;;7.22;;
9330;SDS011;4704;50.470;12.072;2022-11-15T10:16:20;7.70;;;7.10;;
9330;SDS011;4704;50.470;12.072;2022-11-15T10:18:56;8.13;;;7.43;;
9330;SDS011;4704;50.470;12.072;2022-11-15T10:21:29;7.65;;;7.05;;
9330;SDS011;4704;50.470;12.072;2022-11-15T10:23:59;7.30;;;6.70;;
9330;SDS011;4704;50.470;12.072;2022-11-15T10:26:27;7.70;;;6.65;;
9330;SDS011;4704;50.470;12.072;2022-11-15T10:28:54;7.43;;;6.35;;
9330;SDS011;4704;50.470;12.072;2022-11-15T10:31:27;6.95;;;6.35;;
9330;SDS011;4704;50.470;12.072;2022-11-15T10:33:58;6.32;;;5.82;;
9330;SDS011;4704;50.470;12.072;2022-11-15T10:36:31;6.88;;;6.20;;
9330;SDS011;4704;50.470;12.072;2022-11-15T10:38:59;6.15;;;5.65;;
9330;SDS011;4704;50.470;12.072;2022-11-15T10:41:30;6.50;;;6.00;;
9330;SDS011;4704;50.470;12.072;2022-11-15T10:44:08;6.22;;;5.63;;
9330;SDS011;4704;50.470;12.072;2022-11-15T10:46:38;5.97;;;5.47;;
9330;SDS011;4704;50.470;12.072;2022-11-15T10:49:12;5.75;;;5.30;;
9330;SDS011;4704;50.470;12.072;2022-11-15T10:51:40;6.03;;;5.53;;
9330;SDS011;4704;50.470;12.072;2022-11-15T10:54:10;5.63;;;5.13;;
9330;SDS011;4704;50.470;12.072;2022-11-15T10:56:39;6.25;;;5.75;;
9330;SDS011;4704;50.470;12.072;2022-11-15T10:59:09;5.53;;;5.13;;
9330;SDS011;4704;50.470;12.072;2022-11-15T11:01:46;5.82;;;5.38;;
9330;SDS011;4704;50.470;12.072;2022-11-15T11:04:14;5.10;;;4.70;;
9330;SDS011;4704;50.470;12.072;2022-11-15T11:06:47;5.10;;;4.70;;
9330;SDS011;4704;50.470;12.072;2022-11-15T11:11:57;4.80;;;4.43;;
9330;SDS011;4704;50.470;12.072;2022-11-15T11:14:25;5.00;;;4.60;;
9330;SDS011;4704;50.470;12.072;2022-11-15T11:16:55;4.97;;;4.57;;
9330;SDS011;4704;50.470;12.072;2022-11-15T11:19:35;4.68;;;4.28;;
9330;SDS011;4704;50.470;12.072;2022-11-15T11:22:06;4.82;;;4.35;;
9330;SDS011;4704;50.470;12.072;2022-11-15T11:24:37;4.60;;;4.30;;
9330;SDS011;4704;50.470;12.072;2022-11-15T11:27:12;11.15;;;4.22;;
9330;SDS011;4704;50.470;12.072;2022-11-15T11:29:44;4.15;;;3.83;;
9330;SDS011;4704;50.470;12.072;2022-11-15T11:32:21;11.02;;;4.30;;
9330;SDS011;4704;50.470;12.072;2022-11-15T11:34:51;4.05;;;3.75;;
9330;SDS011;4704;50.470;12.072;2022-11-15T11:37:24;4.03;;;3.72;;
9330;SDS011;4704;50.470;12.072;2022-11-15T11:40:06;4.00;;;3.70;;
9330;SDS011;4704;50.470;12.072;2022-11-15T11:42:39;4.03;;;3.67;;
9330;SDS011;4704;50.470;12.072;2022-11-15T11:45:14;3.80;;;3.50;;
9330;SDS011;4704;50.470;12.072;2022-11-15T11:47:46;3.83;;;3.53;;
9330;SDS011;4704;50.470;12.072;2022-11-15T11:50:15;3.60;;;3.35;;
9330;SDS011;4704;50.470;12.072;2022-11-15T11:52:48;3.35;;;3.15;;
9330;SDS011;4704;50.470;12.072;2022-11-15T11:55:19;4.03;;;3.63;;
9330;SDS011;4704;50.470;12.072;2022-11-15T11:57:48;4.00;;;3.70;;
9330;SDS011;4704;50.470;12.072;2022-11-15T12:00:18;3.42;;;3.13;;
9330;SDS011;4704;50.470;12.072;2022-11-15T12:02:50;3.40;;;3.10;;
9330;SDS011;4704;50.470;12.072;2022-11-15T12:05:18;3.25;;;3.00;;
9330;SDS011;4704;50.470;12.072;2022-11-15T12:07:47;3.50;;;3.25;;
9330;SDS011;4704;50.470;12.072;2022-11-15T12:10:18;3.25;;;3.05;;
9330;SDS011;4704;50.470;12.072;2022-11-15T12:12:50;3.35;;;3.15;;
9330;SDS011;4704;50.470;12.072;2022-11-15T12:15:21;3.15;;;2.95;;
9330;SDS011;4704;50.470;12.072;2022-11-15T12:17:51;3.40;;;3.10;;
9330;SDS011;4704;50.470;12.072;2022-11-15T12:20:20;3.40;;;3.13;;
9330;SDS011;4704;50.470;12.072;2022-11-15T12:22:49;3.40;;;3.20;;
9330;SDS011;4704;50.470;12.072;2022-11-15T12:25:19;3.22;;;2.95;;
9330;SDS011;4704;50.470;12.072;2022-11-15T12:27:48;2.83;;;2.60;;
9330;SDS011;4704;50.470;12.072;2022-11-15T12:30:18;2.92;;;2.72;;
9330;SDS011;4704;50.470;12.072;2022-11-15T12:32:51;2.88;;;2.67;;
9330;SDS011;4704;50.470;12.072;2022-11-15T12:38:05;2.80;;;2.60;;
9330;SDS011;4704;50.470;12.072;2022-11-15T12:40:37;3.00;;;2.80;;
9330;SDS011;4704;50.470;12.072;2022-11-15T12:43:10;3.10;;;2.90;;
9330;SDS011;4704;50.470;12.072;2022-11-15T12:45:54;3.08;;;2.88;;
9330;SDS011;4704;50.470;12.072;2022-11-15T12:51:09;2.67;;;2.47;;
9330;SDS011;4704;50.470;12.072;2022-11-15T12:53:36;3.00;;;2.80;;
9330;SDS011;4704;50.470;12.072;2022-11-15T12:56:18;2.65;;;2.45;;
9330;SDS011;4704;50.470;12.072;2022-11-15T12:58:47;2.70;;;2.50;;
9330;SDS011;4704;50.470;12.072;2022-11-15T13:04:08;2.30;;;2.20;;
9330;SDS011;4704;50.470;12.072;2022-11-15T13:06:40;2.60;;;2.40;;
9330;SDS011;4704;50.470;12.072;2022-11-15T13:12:00;2.38;;;2.17;;
9330;SDS011;4704;50.470;12.072;2022-11-15T13:14:42;2.28;;;2.17;;
9330;SDS011;4704;50.470;12.072;2022-11-15T13:17:24;2.60;;;2.40;;
9330;SDS011;4704;50.470;12.072;2022-11-15T13:19:53;2.40;;;2.30;;
9330;SDS011;4704;50.470;12.072;2022-11-15T13:22:25;2.40;;;2.30;;
9330;SDS011;4704;50.470;12.072;2022-11-15T13:25:17;2.45;;;2.28;;
9330;SDS011;4704;50.470;12.072;2022-11-15T13:27:46;2.47;;;2.28;;
9330;SDS011;4704;50.470;12.072;2022-11-15T13:30:15;2.13;;;2.00;;
9330;SDS011;4704;50.470;12.072;2022-11-15T13:32:45;2.42;;;2.22;;
9330;SDS011;4704;50.470;12.072;2022-11-15T13:35:17;2.08;;;1.98;;
9330;SDS011;4704;50.470;12.072;2022-11-15T13:37:46;1.95;;;1.85;;
9330;SDS011;4704;50.470;12.072;2022-11-15T13:40:21;2.10;;;2.00;;
9330;SDS011;4704;50.470;12.072;2022-11-15T13:42:49;2.15;;;2.03;;
9330;SDS011;4704;50.470;12.072;2022-11-15T13:45:17;2.55;;;2.40;;
9330;SDS011;4704;50.470;12.072;2022-11-15T13:47:47;2.42;;;2.28;;
9330;SDS011;4704;50.470;12.072;2022-11-15T13:50:17;2.20;;;2.00;;
9330;SDS011;4704;50.470;12.072;2022-11-15T13:52:49;2.53;;;2.33;;
9330;SDS011;4704;50.470;12.072;2022-11-15T13:55:17;2.00;;;1.90;;
9330;SDS011;4704;50.470;12.072;2022-11-15T13:57:46;2.00;;;1.90;;
9330;SDS011;4704;50.470;12.072;2022-11-15T14:00:32;1.90;;;1.80;;
9330;SDS011;4704;50.470;12.072;2022-11-15T14:03:05;1.95;;;1.85;;
9330;SDS011;4704;50.470;12.072;2022-11-15T14:05:33;2.03;;;1.92;;
9330;SDS011;4704;50.470;12.072;2022-11-15T14:08:03;2.00;;;1.90;;
9330;SDS011;4704;50.470;12.072;2022-11-15T14:10:33;1.90;;;1.80;;
9330;SDS011;4704;50.470;12.072;2022-11-15T14:13:01;1.67;;;1.58;;
9330;SDS011;4704;50.470;12.072;2022-11-15T14:15:31;1.80;;;1.70;;
9330;SDS011;4704;50.470;12.072;2022-11-15T14:17:59;1.85;;;1.75;;
9330;SDS011;4704;50.470;12.072;2022-11-15T14:20:27;1.70;;;1.60;;
9330;SDS011;4704;50.470;12.072;2022-11-15T14:22:56;1.77;;;1.67;;
9330;SDS011;4704;50.470;12.072;2022-11-15T14:25:26;1.70;;;1.60;;
9330;SDS011;4704;50.470;12.072;2022-11-15T14:30:40;1.83;;;1.73;;
9330;SDS011;4704;50.470;12.072;2022-11-15T14:33:19;1.85;;;1.75;;
9330;SDS011;4704;50.470;12.072;2022-11-15T14:35:47;2.00;;;1.90;;
9330;SDS011;4704;50.470;12.072;2022-11-15T14:38:14;1.65;;;1.55;;
9330;SDS011;4704;50.470;12.072;2022-11-15T14:40:43;1.80;;;1.70;;
9330;SDS011;4704;50.470;12.072;2022-11-15T14:43:11;1.90;;;1.80;;
9330;SDS011;4704;50.470;12.072;2022-11-15T14:45:38;1.75;;;1.65;;
9330;SDS011;4704;50.470;12.072;2022-11-15T14:48:06;1.83;;;1.73;;
9330;SDS011;4704;50.470;12.072;2022-11-15T14:50:34;1.60;;;1.50;;
9330;SDS011;4704;50.470;12.072;2022-11-15T14:53:02;1.55;;;1.45;;
9330;SDS011;4704;50.470;12.072;2022-11-15T14:55:30;1.75;;;1.65;;
9330;SDS011;4704;50.470;12.072;2022-11-15T14:58:01;1.65;;;1.55;;
9330;SDS011;4704;50.470;12.072;2022-11-15T15:00:29;1.80;;;1.70;;
9330;SDS011;4704;50.470;12.072;2022-11-15T15:02:56;1.65;;;1.55;;
9330;SDS011;4704;50.470;12.072;2022-11-15T15:05:25;1.63;;;1.52;;
9330;SDS011;4704;50.470;12.072;2022-11-15T15:07:52;1.60;;;1.50;;
9330;SDS011;4704;50.470;12.072;2022-11-15T15:10:20;1.50;;;1.40;;
9330;SDS011;4704;50.470;12.072;2022-11-15T15:12:47;1.60;;;1.50;;
9330;SDS011;4704;50.470;12.072;2022-11-15T15:15:17;1.60;;;1.50;;
9330;SDS011;4704;50.470;12.072;2022-11-15T15:17:45;1.90;;;1.80;;
9330;SDS011;4704;50.470;12.072;2022-11-15T15:20:12;1.60;;;1.50;;
9330;SDS011;4704;50.470;12.072;2022-11-15T15:22:40;1.58;;;1.48;;
9330;SDS011;4704;50.470;12.072;2022-11-15T15:25:18;1.60;;;1.50;;
9330;SDS011;4704;50.470;12.072;2022-11-15T15:27:46;1.60;;;1.50;;
9330;SDS011;4704;50.470;12.072;2022-11-15T15:30:14;2.10;;;1.50;;
9330;SDS011;4704;50.470;12.072;2022-11-15T15:32:43;1.63;;;1.52;;
9330;SDS011;4704;50.470;12.072;2022-11-15T15:35:11;1.48;;;1.38;;
9330;SDS011;4704;50.470;12.072;2022-11-15T15:37:39;1.75;;;1.65;;
9330;SDS011;4704;50.470;12.072;2022-11-15T15:40:10;1.48;;;1.38;;